sensor_id;sensor_type;location;lat;lon;timestamp;pressure;altitude;pressure_sealevel;temperature;humidity
48015;BME280;33780;51.034;7.120;2022-11-20T00:01:21;100421.59;;;5.68;63.02
48015;BME280;33780;51.034;7.120;2022-11-20T00:03:46;100418.94;;;5.68;63.22
48015;BME280;33780;51.034;7.120;2022-11-20T00:06:14;100425.09;;;5.69;63.38
48015;BME280;33780;51.034;7.120;2022-11-20T00:08:40;100419.78;;;5.69;63.02
48015;BME280;33780;51.034;7.120;2022-11-20T00:11:19;100418.09;;;5.68;62.90
48015;BME280;33780;51.034;7.120;2022-11-20T00:13:46;100419.03;;;5.67;63.64
48015;BME280;33780;51.034;7.120;2022-11-20T00:16:14;100418.94;;;5.68;63.16
48015;BME280;33780;51.034;7.120;2022-11-20T00:18:40;100410.00;;;5.69;63.41
48015;BME280;33780;51.034;7.120;2022-11-20T00:21:11;100410.97;;;5.68;63.32
48015;BME280;33780;51.034;7.120;2022-11-20T00:23:36;100417.25;;;5.67;63.76
48015;BME280;33780;51.034;7.120;2022-11-20T00:26:06;100412.78;;;5.68;63.49
48015;BME280;33780;51.034;7.120;2022-11-20T00:28:33;100410.97;;;5.68;63.28
48015;BME280;33780;51.034;7.120;2022-11-20T00:31:07;100407.47;;;5.68;63.50
48015;BME280;33780;51.034;7.120;2022-11-20T00:33:33;100413.63;;;5.68;63.42
48015;BME280;33780;51.034;7.120;2022-11-20T00:36:03;100413.72;;;5.67;63.40
48015;BME280;33780;51.034;7.120;2022-11-20T00:38:30;100416.38;;;5.67;63.02
48015;BME280;33780;51.034;7.120;2022-11-20T00:41:00;100411.94;;;5.67;63.23
48015;BME280;33780;51.034;7.120;2022-11-20T00:43:26;100410.13;;;5.68;63.12
48015;BME280;33780;51.034;7.120;2022-11-20T00:46:06;100403.00;;;5.68;63.44
48015;BME280;33780;51.034;7.120;2022-11-20T00:48:32;100414.47;;;5.69;62.97
48015;BME280;33780;51.034;7.120;2022-11-20T00:50:57;100414.47;;;5.69;63.71
48015;BME280;33780;51.034;7.120;2022-11-20T00:53:23;100409.28;;;5.67;63.36
48015;BME280;33780;51.034;7.120;2022-11-20T00:55:56;100410.97;;;5.68;63.58
48015;BME280;33780;51.034;7.120;2022-11-20T00:58:22;100413.72;;;5.67;63.75
48015;BME280;33780;51.034;7.120;2022-11-20T01:00:48;100408.44;;;5.67;63.36
48015;BME280;33780;51.034;7.120;2022-11-20T01:03:15;100409.28;;;5.67;63.19
48015;BME280;33780;51.034;7.120;2022-11-20T01:05:41;100406.63;;;5.67;63.11
48015;BME280;33780;51.034;7.120;2022-11-20T01:08:06;100403.22;;;5.65;63.64
48015;BME280;33780;51.034;7.120;2022-11-20T01:10:31;100408.53;;;5.65;63.71
48015;BME280;33780;51.034;7.120;2022-11-20T01:12:57;100397.91;;;5.65;63.66
48015;BME280;33780;51.034;7.120;2022-11-20T01:15:41;100403.34;;;5.64;63.91
48015;BME280;33780;51.034;7.120;2022-11-20T01:18:06;100405.03;;;5.65;63.18
48015;BME280;33780;51.034;7.120;2022-11-20T01:20:35;100402.50;;;5.63;63.67
48015;BME280;33780;51.034;7.120;2022-11-20T01:23:01;100399.84;;;5.63;63.58
48015;BME280;33780;51.034;7.120;2022-11-20T01:25:27;100395.47;;;5.62;63.92
48015;BME280;33780;51.034;7.120;2022-11-20T01:27:52;100395.38;;;5.64;63.83
48015;BME280;33780;51.034;7.120;2022-11-20T01:30:18;100387.41;;;5.64;63.79
48015;BME280;33780;51.034;7.120;2022-11-20T01:32:43;100397.06;;;5.65;63.96
48015;BME280;33780;51.034;7.120;2022-11-20T01:35:08;100407.69;;;5.65;64.07
48015;BME280;33780;51.034;7.120;2022-11-20T01:37:34;100396.22;;;5.64;64.10
48015;BME280;33780;51.034;7.120;2022-11-20T01:39:59;100392.59;;;5.65;63.88
48015;BME280;33780;51.034;7.120;2022-11-20T01:42:25;100396.22;;;5.64;63.64
48015;BME280;33780;51.034;7.120;2022-11-20T01:48:12;100387.41;;;5.64;63.70
48015;BME280;33780;51.034;7.120;2022-11-20T01:50:38;100388.38;;;5.63;63.99
48015;BME280;33780;51.034;7.120;2022-11-20T01:53:09;100389.31;;;5.62;63.33
48015;BME280;33780;51.034;7.120;2022-11-20T01:55:48;100381.38;;;5.62;64.00
48015;BME280;33780;51.034;7.120;2022-11-20T01:58:15;100377.88;;;5.61;63.53
48015;BME280;33780;51.034;7.120;2022-11-20T02:00:41;100379.56;;;5.62;63.83
48015;BME280;33780;51.034;7.120;2022-11-20T02:03:12;100385.72;;;5.63;63.80
48015;BME280;33780;51.034;7.120;2022-11-20T02:05:45;100391.97;;;5.62;64.11
48015;BME280;33780;51.034;7.120;2022-11-20T02:08:11;100390.19;;;5.62;63.82
48015;BME280;33780;51.034;7.120;2022-11-20T02:10:37;100384.75;;;5.64;63.75
48015;BME280;33780;51.034;7.120;2022-11-20T02:13:03;100382.09;;;5.64;63.96
48015;BME280;33780;51.034;7.120;2022-11-20T02:15:48;100379.56;;;5.62;64.00
48015;BME280;33780;51.034;7.120;2022-11-20T02:18:16;100382.22;;;5.62;64.36
48015;BME280;33780;51.034;7.120;2022-11-20T02:20:44;100383.91;;;5.63;63.34
48015;BME280;33780;51.034;7.120;2022-11-20T02:23:22;100380.41;;;5.63;64.00
48015;BME280;33780;51.034;7.120;2022-11-20T02:25:51;100375.09;;;5.63;63.96
48015;BME280;33780;51.034;7.120;2022-11-20T02:28:18;100372.44;;;5.63;64.19
48015;BME280;33780;51.034;7.120;2022-11-20T02:30:43;100377.75;;;5.63;63.71
48015;BME280;33780;51.034;7.120;2022-11-20T02:33:09;100375.22;;;5.61;64.51
48015;BME280;33780;51.034;7.120;2022-11-20T02:38:01;100368.19;;;5.60;63.74
48015;BME280;33780;51.034;7.120;2022-11-20T02:40:28;100363.00;;;5.59;64.03
48015;BME280;33780;51.034;7.120;2022-11-20T02:42:54;100361.19;;;5.59;64.07
48015;BME280;33780;51.034;7.120;2022-11-20T02:45:20;100361.19;;;5.59;63.95
48015;BME280;33780;51.034;7.120;2022-11-20T02:47:45;100356.00;;;5.58;64.52
48015;BME280;33780;51.034;7.120;2022-11-20T02:50:11;100359.63;;;5.57;64.48
48015;BME280;33780;51.034;7.120;2022-11-20T02:52:36;100356.97;;;5.57;64.45
48015;BME280;33780;51.034;7.120;2022-11-20T02:55:02;100343.69;;;5.57;64.42
48015;BME280;33780;51.034;7.120;2022-11-20T02:57:27;100358.75;;;5.56;64.45
48015;BME280;33780;51.034;7.120;2022-11-20T02:59:53;100349.94;;;5.56;64.62
48015;BME280;33780;51.034;7.120;2022-11-20T03:02:18;100337.63;;;5.55;64.55
48015;BME280;33780;51.034;7.120;2022-11-20T03:04:43;100337.50;;;5.56;64.40
48015;BME280;33780;51.034;7.120;2022-11-20T03:07:09;100323.38;;;5.56;64.63
48015;BME280;33780;51.034;7.120;2022-11-20T03:09:34;100320.72;;;5.56;64.10
48015;BME280;33780;51.034;7.120;2022-11-20T03:12:00;100322.53;;;5.55;64.57
48015;BME280;33780;51.034;7.120;2022-11-20T03:14:25;100323.50;;;5.54;64.42
48015;BME280;33780;51.034;7.120;2022-11-20T03:16:50;100320.00;;;5.54;64.26
48015;BME280;33780;51.034;7.120;2022-11-20T03:19:15;100324.47;;;5.53;64.87
48015;BME280;33780;51.034;7.120;2022-11-20T03:21:41;100327.00;;;5.55;64.47
48015;BME280;33780;51.034;7.120;2022-11-20T03:24:06;100321.69;;;5.55;63.95
48015;BME280;33780;51.034;7.120;2022-11-20T03:26:32;100321.69;;;5.55;64.59
48015;BME280;33780;51.034;7.120;2022-11-20T03:28:59;100321.81;;;5.53;64.37
48015;BME280;33780;51.034;7.120;2022-11-20T03:31:44;100327.09;;;5.53;64.73
48015;BME280;33780;51.034;7.120;2022-11-20T03:34:11;100325.41;;;5.52;64.74
48015;BME280;33780;51.034;7.120;2022-11-20T03:36:41;100323.72;;;5.51;64.52
48015;BME280;33780;51.034;7.120;2022-11-20T03:39:07;100326.38;;;5.51;64.66
48015;BME280;33780;51.034;7.120;2022-11-20T03:41:37;100331.69;;;5.51;64.92
48015;BME280;33780;51.034;7.120;2022-11-20T03:44:04;100331.69;;;5.51;64.82
48015;BME280;33780;51.034;7.120;2022-11-20T03:46:30;100337.00;;;5.51;64.57
48015;BME280;33780;51.034;7.120;2022-11-20T03:48:56;100336.88;;;5.53;64.37
48015;BME280;33780;51.034;7.120;2022-11-20T03:51:25;100338.78;;;5.51;64.58
48015;BME280;33780;51.034;7.120;2022-11-20T03:53:53;100337.94;;;5.50;64.11
48015;BME280;33780;51.034;7.120;2022-11-20T03:56:22;100333.38;;;5.52;65.06
48015;BME280;33780;51.034;7.120;2022-11-20T03:58:48;100332.53;;;5.52;64.51
48015;BME280;33780;51.034;7.120;2022-11-20T04:01:19;100336.03;;;5.52;65.10
48015;BME280;33780;51.034;7.120;2022-11-20T04:03:45;100328.06;;;5.52;64.96
48015;BME280;33780;51.034;7.120;2022-11-20T04:06:13;100321.91;;;5.52;65.25
48015;BME280;33780;51.034;7.120;2022-11-20T04:08:38;100327.22;;;5.52;65.18
48015;BME280;33780;51.034;7.120;2022-11-20T04:13:40;100328.19;;;5.51;64.79
48015;BME280;33780;51.034;7.120;2022-11-20T04:16:07;100322.88;;;5.51;65.42
48015;BME280;33780;51.034;7.120;2022-11-20T04:18:33;100333.50;;;5.51;65.16
48015;BME280;33780;51.034;7.120;2022-11-20T04:20:58;100324.69;;;5.50;65.19
48015;BME280;33780;51.034;7.120;2022-11-20T04:23:24;100315.88;;;5.50;65.16
48015;BME280;33780;51.034;7.120;2022-11-20T04:25:49;100325.63;;;5.49;65.43
48015;BME280;33780;51.034;7.120;2022-11-20T04:28:15;100317.69;;;5.49;65.26
48015;BME280;33780;51.034;7.120;2022-11-20T04:30:40;100317.69;;;5.49;65.52
48015;BME280;33780;51.034;7.120;2022-11-20T04:33:05;100308.03;;;5.48;65.31
48015;BME280;33780;51.034;7.120;2022-11-20T04:35:34;100306.31;;;5.47;65.65
48015;BME280;33780;51.034;7.120;2022-11-20T04:38:00;100305.59;;;5.45;65.33
48015;BME280;33780;51.034;7.120;2022-11-20T04:40:25;100307.41;;;5.44;65.15
48015;BME280;33780;51.034;7.120;2022-11-20T04:42:50;100312.81;;;5.43;65.81
48015;BME280;33780;51.034;7.120;2022-11-20T04:45:15;100315.47;;;5.43;65.82
48015;BME280;33780;51.034;7.120;2022-11-20T04:47:41;100318.25;;;5.41;65.94
48015;BME280;33780;51.034;7.120;2022-11-20T04:50:06;100335.97;;;5.41;65.58
48015;BME280;33780;51.034;7.120;2022-11-20T04:52:32;100320.16;;;5.39;65.85
48015;BME280;33780;51.034;7.120;2022-11-20T04:54:57;100325.53;;;5.38;66.09
48015;BME280;33780;51.034;7.120;2022-11-20T04:57:22;100326.50;;;5.37;65.99
48015;BME280;33780;51.034;7.120;2022-11-20T04:59:47;100330.84;;;5.38;66.38
48015;BME280;33780;51.034;7.120;2022-11-20T05:02:13;100328.31;;;5.36;66.30
48015;BME280;33780;51.034;7.120;2022-11-20T05:04:38;100326.59;;;5.35;66.43
48015;BME280;33780;51.034;7.120;2022-11-20T05:07:03;100338.06;;;5.36;66.19
48015;BME280;33780;51.034;7.120;2022-11-20T05:09:29;100338.91;;;5.36;66.02
48015;BME280;33780;51.034;7.120;2022-11-20T05:11:54;100331.91;;;5.35;65.89
48015;BME280;33780;51.034;7.120;2022-11-20T05:14:20;100331.06;;;5.35;66.11
48015;BME280;33780;51.034;7.120;2022-11-20T05:16:45;100327.47;;;5.36;65.97
48015;BME280;33780;51.034;7.120;2022-11-20T05:19:10;100331.06;;;5.35;66.79
48015;BME280;33780;51.034;7.120;2022-11-20T05:21:35;100334.56;;;5.35;66.89
48015;BME280;33780;51.034;7.120;2022-11-20T05:24:01;100332.75;;;5.36;66.83
48015;BME280;33780;51.034;7.120;2022-11-20T05:26:26;100334.56;;;5.35;66.87
48015;BME280;33780;51.034;7.120;2022-11-20T05:28:51;100331.91;;;5.35;66.83
48015;BME280;33780;51.034;7.120;2022-11-20T05:31:22;100335.53;;;5.34;66.46
48015;BME280;33780;51.034;7.120;2022-11-20T05:33:47;100334.56;;;5.35;66.37
48015;BME280;33780;51.034;7.120;2022-11-20T05:36:14;100333.72;;;5.35;66.23
48015;BME280;33780;51.034;7.120;2022-11-20T05:38:40;100331.91;;;5.35;66.46
48015;BME280;33780;51.034;7.120;2022-11-20T05:41:08;100326.59;;;5.35;66.35
48015;BME280;33780;51.034;7.120;2022-11-20T05:43:34;100326.59;;;5.35;66.58
48015;BME280;33780;51.034;7.120;2022-11-20T05:46:00;100319.50;;;5.36;66.57
48015;BME280;33780;51.034;7.120;2022-11-20T05:48:25;100311.53;;;5.36;66.84
48015;BME280;33780;51.034;7.120;2022-11-20T05:50:50;100328.31;;;5.36;66.58
48015;BME280;33780;51.034;7.120;2022-11-20T05:53:16;100330.00;;;5.37;66.35
48015;BME280;33780;51.034;7.120;2022-11-20T05:55:41;100319.50;;;5.36;66.86
48015;BME280;33780;51.034;7.120;2022-11-20T05:58:06;100321.19;;;5.37;66.90
48015;BME280;33780;51.034;7.120;2022-11-20T06:00:31;100318.53;;;5.37;66.80
48015;BME280;33780;51.034;7.120;2022-11-20T06:02:57;100322.16;;;5.36;67.04
48015;BME280;33780;51.034;7.120;2022-11-20T06:05:22;100335.41;;;5.36;66.97
48015;BME280;33780;51.034;7.120;2022-11-20T06:07:47;100328.41;;;5.35;67.35
48015;BME280;33780;51.034;7.120;2022-11-20T06:10:12;100332.75;;;5.36;66.99
48015;BME280;33780;51.034;7.120;2022-11-20T06:12:38;100329.25;;;5.35;67.42
48015;BME280;33780;51.034;7.120;2022-11-20T06:15:04;100327.56;;;5.34;66.99
48015;BME280;33780;51.034;7.120;2022-11-20T06:17:30;100323.09;;;5.35;67.13
48015;BME280;33780;51.034;7.120;2022-11-20T06:19:55;100324.91;;;5.34;67.15
48015;BME280;33780;51.034;7.120;2022-11-20T06:22:21;100330.22;;;5.34;67.52
48015;BME280;33780;51.034;7.120;2022-11-20T06:24:47;100329.38;;;5.34;67.56
48015;BME280;33780;51.034;7.120;2022-11-20T06:27:12;100332.97;;;5.33;67.57
48015;BME280;33780;51.034;7.120;2022-11-20T06:29:37;100327.69;;;5.33;67.24
48015;BME280;33780;51.034;7.120;2022-11-20T06:32:03;100322.38;;;5.33;67.59
48015;BME280;33780;51.034;7.120;2022-11-20T06:34:28;100327.69;;;5.33;67.70
48015;BME280;33780;51.034;7.120;2022-11-20T06:36:53;100318.88;;;5.32;67.56
48015;BME280;33780;51.034;7.120;2022-11-20T06:39:18;100320.69;;;5.32;67.62
48015;BME280;33780;51.034;7.120;2022-11-20T06:41:44;100325.97;;;5.32;67.06
48015;BME280;33780;51.034;7.120;2022-11-20T06:44:09;100325.25;;;5.30;67.25
48015;BME280;33780;51.034;7.120;2022-11-20T06:46:34;100330.66;;;5.28;67.35
48015;BME280;33780;51.034;7.120;2022-11-20T06:48:59;100329.94;;;5.26;66.79
48015;BME280;33780;51.034;7.120;2022-11-20T06:51:25;100335.44;;;5.23;67.60
48015;BME280;33780;51.034;7.120;2022-11-20T06:53:50;100334.78;;;5.20;67.74
48015;BME280;33780;51.034;7.120;2022-11-20T06:56:15;100336.81;;;5.16;67.56
48015;BME280;33780;51.034;7.120;2022-11-20T06:58:41;100334.28;;;5.14;67.28
48015;BME280;33780;51.034;7.120;2022-11-20T07:01:09;100334.59;;;5.10;67.24
48015;BME280;33780;51.034;7.120;2022-11-20T07:03:35;100337.47;;;5.07;67.28
48015;BME280;33780;51.034;7.120;2022-11-20T07:06:01;100344.69;;;5.05;67.28
48015;BME280;33780;51.034;7.120;2022-11-20T07:08:27;100342.31;;;5.00;67.45
48015;BME280;33780;51.034;7.120;2022-11-20T07:10:53;100343.38;;;4.98;67.37
48015;BME280;33780;51.034;7.120;2022-11-20T07:13:21;100344.44;;;4.95;67.60
48015;BME280;33780;51.034;7.120;2022-11-20T07:15:46;100343.81;;;4.92;67.47
48015;BME280;33780;51.034;7.120;2022-11-20T07:18:12;100352.00;;;4.89;67.27
48015;BME280;33780;51.034;7.120;2022-11-20T07:20:37;100357.50;;;4.85;67.16
48015;BME280;33780;51.034;7.120;2022-11-20T07:23:02;100358.53;;;4.83;67.65
48015;BME280;33780;51.034;7.120;2022-11-20T07:25:28;100372.00;;;4.80;67.79
48015;BME280;33780;51.034;7.120;2022-11-20T07:28:00;100365.13;;;4.77;67.59
48015;BME280;33780;51.034;7.120;2022-11-20T07:30:29;100369.66;;;4.75;67.81
48015;BME280;33780;51.034;7.120;2022-11-20T07:32:55;100364.47;;;4.74;67.86
48015;BME280;33780;51.034;7.120;2022-11-20T07:35:22;100366.38;;;4.72;67.44
48015;BME280;33780;51.034;7.120;2022-11-20T07:37:48;100363.00;;;4.70;67.44
48015;BME280;33780;51.034;7.120;2022-11-20T07:40:14;100363.00;;;4.70;67.77
48015;BME280;33780;51.034;7.120;2022-11-20T07:42:50;100366.69;;;4.67;67.66
48015;BME280;33780;51.034;7.120;2022-11-20T07:45:16;100365.75;;;4.68;68.11
48015;BME280;33780;51.034;7.120;2022-11-20T07:47:42;100363.09;;;4.68;67.98
48015;BME280;33780;51.034;7.120;2022-11-20T07:50:07;100364.91;;;4.68;67.72
48015;BME280;33780;51.034;7.120;2022-11-20T07:52:33;100364.78;;;4.69;67.89
48015;BME280;33780;51.034;7.120;2022-11-20T07:54:58;100370.00;;;4.71;67.82
48015;BME280;33780;51.034;7.120;2022-11-20T07:57:23;100361.19;;;4.70;68.03
48015;BME280;33780;51.034;7.120;2022-11-20T07:59:48;100358.53;;;4.70;67.97
48015;BME280;33780;51.034;7.120;2022-11-20T08:02:14;100357.59;;;4.71;67.88
48015;BME280;33780;51.034;7.120;2022-11-20T08:04:39;100343.38;;;4.72;68.45
48015;BME280;33780;51.034;7.120;2022-11-20T08:07:04;100345.06;;;4.73;68.15
48015;BME280;33780;51.034;7.120;2022-11-20T08:09:30;100347.63;;;4.75;67.99
48015;BME280;33780;51.034;7.120;2022-11-20T08:11:55;100345.81;;;4.75;68.60
48015;BME280;33780;51.034;7.120;2022-11-20T08:14:55;100343.16;;;4.75;68.22
48015;BME280;33780;51.034;7.120;2022-11-20T08:17:23;100347.50;;;4.76;68.27
48015;BME280;33780;51.034;7.120;2022-11-20T08:19:49;100343.16;;;4.75;68.42
48015;BME280;33780;51.034;7.120;2022-11-20T08:22:14;100344.88;;;4.76;68.74
48015;BME280;33780;51.034;7.120;2022-11-20T08:24:39;100347.41;;;4.78;68.31
48015;BME280;33780;51.034;7.120;2022-11-20T08:27:04;100349.94;;;4.79;68.80
48015;BME280;33780;51.034;7.120;2022-11-20T08:29:30;100339.13;;;4.82;68.49
48015;BME280;33780;51.034;7.120;2022-11-20T08:31:55;100351.34;;;4.85;68.87
48015;BME280;33780;51.034;7.120;2022-11-20T08:34:20;100350.28;;;4.88;69.11
48015;BME280;33780;51.034;7.120;2022-11-20T08:36:45;100351.88;;;4.90;68.97
48015;BME280;33780;51.034;7.120;2022-11-20T08:39:12;100350.81;;;4.93;68.77
48015;BME280;33780;51.034;7.120;2022-11-20T08:41:37;100356.88;;;4.95;68.73
48015;BME280;33780;51.034;7.120;2022-11-20T08:44:04;100352.31;;;4.97;68.99
48015;BME280;33780;51.034;7.120;2022-11-20T08:46:39;100355.81;;;4.97;68.80
48015;BME280;33780;51.034;7.120;2022-11-20T08:49:08;100352.09;;;5.00;68.81
48015;BME280;33780;51.034;7.120;2022-11-20T08:51:33;100365.16;;;5.03;68.78
48015;BME280;33780;51.034;7.120;2022-11-20T08:53:59;100358.78;;;5.05;68.85
48015;BME280;33780;51.034;7.120;2022-11-20T08:56:24;100357.72;;;5.08;68.88
48015;BME280;33780;51.034;7.120;2022-11-20T08:58:50;100364.50;;;5.12;69.15
48015;BME280;33780;51.034;7.120;2022-11-20T09:01:17;100366.00;;;5.16;68.90
48015;BME280;33780;51.034;7.120;2022-11-20T09:03:43;100362.28;;;5.19;68.82
48015;BME280;33780;51.034;7.120;2022-11-20T09:06:08;100357.81;;;5.19;68.74
48015;BME280;33780;51.034;7.120;2022-11-20T09:08:34;100348.91;;;5.20;68.90
48015;BME280;33780;51.034;7.120;2022-11-20T09:11:00;100352.31;;;5.22;68.86
48015;BME280;33780;51.034;7.120;2022-11-20T09:13:27;100353.91;;;5.25;68.82
48015;BME280;33780;51.034;7.120;2022-11-20T09:15:58;100356.44;;;5.26;68.82
48015;BME280;33780;51.034;7.120;2022-11-20T09:18:24;100360.81;;;5.27;68.71
48015;BME280;33780;51.034;7.120;2022-11-20T09:20:49;100354.53;;;5.28;68.88
48015;BME280;33780;51.034;7.120;2022-11-20T09:23:15;100351.03;;;5.28;68.77
48015;BME280;33780;51.034;7.120;2022-11-20T09:25:41;100355.28;;;5.30;68.89
48015;BME280;33780;51.034;7.120;2022-11-20T09:28:07;100354.31;;;5.31;68.66
48015;BME280;33780;51.034;7.120;2022-11-20T09:30:32;100353.25;;;5.34;68.70
48015;BME280;33780;51.034;7.120;2022-11-20T09:32:58;100353.16;;;5.35;69.26
48015;BME280;33780;51.034;7.120;2022-11-20T09:35:23;100344.97;;;5.38;68.94
48015;BME280;33780;51.034;7.120;2022-11-20T09:37:48;100349.34;;;5.39;69.34
48015;BME280;33780;51.034;7.120;2022-11-20T09:40:28;100335.97;;;5.41;68.98
48015;BME280;33780;51.034;7.120;2022-11-20T09:43:03;100344.56;;;5.44;69.06
48015;BME280;33780;51.034;7.120;2022-11-20T09:45:54;100341.78;;;5.46;69.29
48015;BME280;33780;51.034;7.120;2022-11-20T09:51:20;100313.97;;;5.52;69.39
48015;BME280;33780;51.034;7.120;2022-11-20T09:56:44;100324.78;;;5.61;68.75
48015;BME280;33780;51.034;7.120;2022-11-20T09:59:29;100318.41;;;5.64;68.25
48015;BME280;33780;51.034;7.120;2022-11-20T10:01:58;100315.50;;;5.67;67.59
48015;BME280;33780;51.034;7.120;2022-11-20T10:04:25;100317.94;;;5.70;68.24
48015;BME280;33780;51.034;7.120;2022-11-20T10:09:39;100312.72;;;5.81;67.45
48015;BME280;33780;51.034;7.120;2022-11-20T10:18:01;100307.06;;;5.98;67.36
48015;BME280;33780;51.034;7.120;2022-11-20T10:23:16;100306.59;;;6.04;66.99
48015;BME280;33780;51.034;7.120;2022-11-20T10:25:56;100309.03;;;6.07;67.27
48015;BME280;33780;51.034;7.120;2022-11-20T10:31:37;100299.13;;;6.10;67.42
48015;BME280;33780;51.034;7.120;2022-11-20T10:36:50;100286.81;;;6.09;67.42
48015;BME280;33780;51.034;7.120;2022-11-20T10:39:28;100292.00;;;6.10;67.06
48015;BME280;33780;51.034;7.120;2022-11-20T10:41:56;100281.38;;;6.10;67.95
48015;BME280;33780;51.034;7.120;2022-11-20T10:44:26;100280.31;;;6.13;67.32
48015;BME280;33780;51.034;7.120;2022-11-20T10:47:18;100270.66;;;6.12;67.62
48015;BME280;33780;51.034;7.120;2022-11-20T10:49:46;100273.22;;;6.13;67.38
48015;BME280;33780;51.034;7.120;2022-11-20T10:55:06;100261.50;;;6.16;67.33
48015;BME280;33780;51.034;7.120;2022-11-20T10:57:46;100274.53;;;6.19;66.81
48015;BME280;33780;51.034;7.120;2022-11-20T11:00:16;100271.78;;;6.20;67.45
48015;BME280;33780;51.034;7.120;2022-11-20T11:02:50;100253.78;;;6.24;66.99
48015;BME280;33780;51.034;7.120;2022-11-20T11:05:39;100247.19;;;6.29;67.43
48015;BME280;33780;51.034;7.120;2022-11-20T11:08:12;100237.03;;;6.34;67.38
48015;BME280;33780;51.034;7.120;2022-11-20T11:10:44;100234.03;;;6.39;67.27
48015;BME280;33780;51.034;7.120;2022-11-20T11:13:30;100227.63;;;6.42;67.17
48015;BME280;33780;51.034;7.120;2022-11-20T11:15:56;100228.34;;;6.44;67.37
48015;BME280;33780;51.034;7.120;2022-11-20T11:18:32;100220.25;;;6.45;67.25
48015;BME280;33780;51.034;7.120;2022-11-20T11:21:04;100220.25;;;6.45;67.19
48015;BME280;33780;51.034;7.120;2022-11-20T11:23:37;100213.13;;;6.46;67.76
48015;BME280;33780;51.034;7.120;2022-11-20T11:26:06;100210.47;;;6.46;67.66
48015;BME280;33780;51.034;7.120;2022-11-20T11:28:32;100213.97;;;6.46;67.41
48015;BME280;33780;51.034;7.120;2022-11-20T11:30:58;100207.81;;;6.46;67.31
48015;BME280;33780;51.034;7.120;2022-11-20T11:33:25;100203.34;;;6.46;67.91
48015;BME280;33780;51.034;7.120;2022-11-20T11:35:59;100201.56;;;6.47;67.86
48015;BME280;33780;51.034;7.120;2022-11-20T11:38:32;100197.09;;;6.47;67.52
48015;BME280;33780;51.034;7.120;2022-11-20T11:41:00;100195.28;;;6.48;67.66
48015;BME280;33780;51.034;7.120;2022-11-20T11:43:29;100188.16;;;6.48;67.16
48015;BME280;33780;51.034;7.120;2022-11-20T11:52:13;100176.56;;;6.49;66.86
48015;BME280;33780;51.034;7.120;2022-11-20T11:54:45;100171.13;;;6.51;67.46
48015;BME280;33780;51.034;7.120;2022-11-20T12:00:01;100168.09;;;6.55;67.62
48015;BME280;33780;51.034;7.120;2022-11-20T12:02:37;100168.81;;;6.57;67.36
48015;BME280;33780;51.034;7.120;2022-11-20T12:05:24;100161.69;;;6.58;67.13
48015;BME280;33780;51.034;7.120;2022-11-20T12:08:02;100161.56;;;6.59;67.58
48015;BME280;33780;51.034;7.120;2022-11-20T12:11:12;100156.13;;;6.61;67.52
48015;BME280;33780;51.034;7.120;2022-11-20T12:13:55;100150.69;;;6.62;67.89
48015;BME280;33780;51.034;7.120;2022-11-20T12:16:21;100144.41;;;6.63;67.66
48015;BME280;33780;51.034;7.120;2022-11-20T12:18:51;100142.50;;;6.65;67.95
48015;BME280;33780;51.034;7.120;2022-11-20T12:21:31;100139.00;;;6.65;68.10
48015;BME280;33780;51.034;7.120;2022-11-20T12:24:10;100139.72;;;6.67;67.73
48015;BME280;33780;51.034;7.120;2022-11-20T12:29:43;100135.13;;;6.69;67.83
48015;BME280;33780;51.034;7.120;2022-11-20T12:40:55;100117.22;;;6.71;67.84
48015;BME280;33780;51.034;7.120;2022-11-20T12:43:27;100110.22;;;6.70;67.74
48015;BME280;33780;51.034;7.120;2022-11-20T12:46:37;100112.03;;;6.70;67.57
48015;BME280;33780;51.034;7.120;2022-11-20T12:49:27;100115.66;;;6.69;67.10
48015;BME280;33780;51.034;7.120;2022-11-20T12:52:14;100109.38;;;6.70;67.48
48015;BME280;33780;51.034;7.120;2022-11-20T12:55:02;100101.41;;;6.70;67.50
48015;BME280;33780;51.034;7.120;2022-11-20T13:02:44;100082.06;;;6.68;67.86
48015;BME280;33780;51.034;7.120;2022-11-20T13:05:23;100088.22;;;6.68;68.19
48015;BME280;33780;51.034;7.120;2022-11-20T13:07:52;100076.88;;;6.66;68.02
48015;BME280;33780;51.034;7.120;2022-11-20T13:10:38;100074.09;;;6.68;68.70
48015;BME280;33780;51.034;7.120;2022-11-20T13:13:22;100060.66;;;6.69;67.86
48015;BME280;33780;51.034;7.120;2022-11-20T13:15:58;100053.66;;;6.68;68.06
48015;BME280;33780;51.034;7.120;2022-11-20T13:18:37;100055.34;;;6.69;67.79
48015;BME280;33780;51.034;7.120;2022-11-20T13:21:14;100046.53;;;6.69;68.70
48015;BME280;33780;51.034;7.120;2022-11-20T13:23:39;100041.09;;;6.70;68.27
48015;BME280;33780;51.034;7.120;2022-11-20T13:26:14;100036.50;;;6.72;69.04
48015;BME280;33780;51.034;7.120;2022-11-20T13:28:40;100033.44;;;6.77;68.46
48015;BME280;33780;51.034;7.120;2022-11-20T13:31:11;100027.88;;;6.80;68.39
48015;BME280;33780;51.034;7.120;2022-11-20T13:33:49;100031.38;;;6.80;68.25
48015;BME280;33780;51.034;7.120;2022-11-20T13:36:27;100022.34;;;6.83;68.40
48015;BME280;33780;51.034;7.120;2022-11-20T13:38:54;100018.84;;;6.82;68.12
48015;BME280;33780;51.034;7.120;2022-11-20T13:41:38;100024.88;;;6.84;68.60
48015;BME280;33780;51.034;7.120;2022-11-20T13:44:36;100015.06;;;6.85;69.06
48015;BME280;33780;51.034;7.120;2022-11-20T13:46:59;100010.72;;;6.84;68.93
48015;BME280;33780;51.034;7.120;2022-11-20T13:49:38;100009.88;;;6.83;69.00
48015;BME280;33780;51.034;7.120;2022-11-20T13:55:18;100002.63;;;6.85;68.93
48015;BME280;33780;51.034;7.120;2022-11-20T14:03:40;99982.19;;;6.86;68.82
48015;BME280;33780;51.034;7.120;2022-11-20T14:06:14;99977.72;;;6.86;69.11
48015;BME280;33780;51.034;7.120;2022-11-20T14:08:46;99964.28;;;6.88;68.73
48015;BME280;33780;51.034;7.120;2022-11-20T14:11:23;99974.78;;;6.89;68.46
48015;BME280;33780;51.034;7.120;2022-11-20T14:14:15;99966.69;;;6.91;68.34
48015;BME280;33780;51.034;7.120;2022-11-20T14:16:41;99963.06;;;6.92;68.65
48015;BME280;33780;51.034;7.120;2022-11-20T14:24:37;99952.41;;;6.92;68.93